createdAt,value
2019-05-13T00:04:07.620Z,98769.11
2019-05-13T00:09:09.108Z,98766.56
2019-05-13T00:14:10.633Z,98756.72
2019-05-13T00:19:14.246Z,98765.23
2019-05-13T00:24:15.688Z,98759.75
2019-05-13T00:29:18.322Z,98762.66
2019-05-13T00:34:19.806Z,98762.66
2019-05-13T00:39:21.607Z,98766.27
2019-05-13T00:44:24.450Z,98767.75
2019-05-13T00:49:26.058Z,98772.50
2019-05-13T00:54:27.536Z,98766.43
2019-05-13T00:59:29.079Z,98763.42
2019-05-13T01:04:30.558Z,98767.55
2019-05-13T01:09:34.068Z,98773.69
2019-05-13T01:14:35.438Z,98777.66
2019-05-13T01:19:37.421Z,98785.88
2019-05-13T01:24:38.894Z,98795.72
2019-05-13T01:29:40.531Z,98791.66
2019-05-13T01:34:44.215Z,98788.83
2019-05-13T01:39:45.435Z,98785.73
2019-05-13T01:44:46.956Z,98785.79
2019-05-13T01:49:48.429Z,98788.08
2019-05-13T01:54:50.000Z,98796.08
2019-05-13T01:59:53.821Z,98783.23
2019-05-13T02:04:55.067Z,98791.84
2019-05-13T02:09:57.866Z,98797.41
2019-05-13T02:14:59.542Z,98800.04
2019-05-13T02:20:03.913Z,98800.77
2019-05-13T02:25:06.298Z,98812.68
2019-05-13T02:30:08.288Z,98813.55
2019-05-13T02:35:13.467Z,98818.94
2019-05-13T02:40:14.002Z,98819.09
2019-05-13T02:45:16.179Z,98821.00
2019-05-13T02:50:18.080Z,98827.90
2019-05-13T02:55:22.185Z,98820.98
2019-05-13T03:00:23.780Z,98825.50
2019-05-13T03:05:25.425Z,98822.86
2019-05-13T03:10:27.010Z,98824.17
2019-05-13T03:15:32.758Z,98831.18
2019-05-13T03:20:34.626Z,98835.90
2019-05-13T03:25:36.105Z,98844.81
2019-05-13T03:30:37.796Z,98846.05
2019-05-13T03:35:44.774Z,98856.54
2019-05-13T03:40:45.995Z,98863.30
2019-05-13T03:45:52.564Z,98865.46
2019-05-13T03:50:54.867Z,98865.37
2019-05-13T03:55:56.343Z,98871.69
2019-05-13T04:00:58.223Z,98877.16
2019-05-13T04:06:03.198Z,98876.44
2019-05-13T04:11:03.608Z,98880.95
2019-05-13T04:16:05.294Z,98886.63
2019-05-13T04:21:07.278Z,98883.69
2019-05-13T04:26:08.992Z,98890.39
2019-05-13T04:31:14.086Z,98886.42
2019-05-13T04:36:14.559Z,98885.92
2019-05-13T04:41:17.439Z,98888.08
2019-05-13T04:46:22.470Z,98885.62
2019-05-13T04:51:23.115Z,98882.58
2019-05-13T04:56:24.744Z,98885.95
2019-05-13T05:02:04.800Z,98892.84
2019-05-13T05:07:52.556Z,98910.45
2019-05-13T05:13:38.984Z,98908.47
2019-05-13T05:19:24.236Z,98899.75
2019-05-13T05:24:48.902Z,98905.13
2019-05-13T05:30:14.138Z,98911.74
2019-05-13T05:35:35.814Z,98912.06
2019-05-13T05:40:42.630Z,98916.13
2019-05-13T05:45:44.596Z,98909.69
2019-05-13T05:50:46.575Z,98918.46
2019-05-13T05:55:51.803Z,98919.64
2019-05-13T06:00:55.663Z,98927.00
2019-05-13T06:05:57.290Z,98935.02
2019-05-13T06:11:01.310Z,98937.14
2019-05-13T06:16:03.187Z,98932.08
2019-05-13T06:21:04.842Z,98940.63
2019-05-13T06:26:06.515Z,98943.67
2019-05-13T06:31:08.207Z,98957.98
2019-05-13T06:36:11.370Z,98946.30
2019-05-13T06:41:14.830Z,98958.56
2019-05-13T06:46:16.704Z,98960.45
2019-05-13T06:51:18.287Z,98971.87
2019-05-13T06:56:21.850Z,98973.84
2019-05-13T07:01:23.361Z,98976.31
2019-05-13T07:06:27.362Z,98984.42
2019-05-13T07:11:28.300Z,98986.89
2019-05-13T07:16:31.745Z,98986.89
2019-05-13T07:21:33.491Z,98993.59
2019-05-13T07:26:35.117Z,99000.03
2019-05-13T07:31:36.892Z,98994.66
2019-05-13T07:36:38.773Z,98998.92
2019-05-13T07:41:42.940Z,99009.89
2019-05-13T07:46:44.832Z,99010.30
2019-05-13T07:51:46.395Z,99015.41
2019-05-13T07:56:47.893Z,99017.79
2019-05-13T08:01:51.999Z,99022.77
2019-05-13T08:06:52.912Z,99029.59
2019-05-13T08:12:05.298Z,99032.84
2019-05-13T08:16:57.800Z,99040.22
2019-05-13T08:22:01.841Z,99039.28
2019-05-13T08:27:02.862Z,99045.64
2019-05-13T08:32:04.359Z,99051.23
2019-05-13T08:37:06.102Z,99049.85
2019-05-13T08:42:16.003Z,99056.91
2019-05-13T08:47:12.310Z,99058.14
2019-05-13T08:52:13.961Z,99071.59
2019-05-13T08:57:15.553Z,99071.80
2019-05-13T09:02:17.434Z,99079.11
2019-05-13T09:07:23.630Z,99075.00
2019-05-13T09:12:32.200Z,99073.44
2019-05-13T09:17:28.058Z,99071.30
2019-05-13T09:22:31.750Z,99077.65
2019-05-13T09:27:33.031Z,99082.04
2019-05-13T09:32:34.506Z,99087.60
2019-05-13T09:37:36.052Z,99089.58
2019-05-13T09:42:49.148Z,99089.21
2019-05-13T09:47:41.745Z,99088.14
2019-05-13T09:52:43.524Z,99090.90
2019-05-13T09:57:45.006Z,99093.31
2019-05-13T10:02:46.608Z,99085.52
2019-05-13T10:07:48.185Z,99085.81
2019-05-13T10:13:07.296Z,99085.81
2019-05-13T10:17:53.186Z,99085.95
2019-05-13T10:22:54.870Z,99084.23
2019-05-13T10:27:56.655Z,99080.64
2019-05-13T10:32:59.549Z,99078.54
2019-05-13T10:38:04.360Z,99084.52
2019-05-13T10:43:06.059Z,99078.19
2019-05-13T10:48:10.479Z,99081.39
2019-05-13T10:53:12.282Z,99076.86
2019-05-13T10:58:14.018Z,99076.03
2019-05-13T11:03:15.951Z,99076.68
2019-05-13T11:08:17.730Z,99082.95
2019-05-13T11:13:22.624Z,99085.61
2019-05-13T11:18:24.448Z,99075.48
2019-05-13T11:23:26.232Z,99076.73
2019-05-13T11:28:28.011Z,99077.59
2019-05-13T11:33:31.869Z,99076.37
2019-05-13T11:38:33.230Z,99080.50
2019-05-13T11:43:34.906Z,99076.30
2019-05-13T11:48:36.682Z,99065.72
2019-05-13T11:53:38.488Z,99063.27
2019-05-13T11:58:43.169Z,99061.23
2019-05-13T12:03:43.680Z,99053.39
2019-05-13T12:08:50.586Z,99062.08
2019-05-13T12:13:52.501Z,99059.42
2019-05-13T12:18:53.029Z,99055.82
2019-05-13T12:23:54.836Z,99054.48
2019-05-13T12:28:56.318Z,99050.67
2019-05-13T12:33:57.861Z,99054.27
2019-05-13T12:38:59.327Z,99056.66
2019-05-13T12:44:01.881Z,99045.03
2019-05-13T12:49:04.136Z,99049.23
2019-05-13T12:54:06.003Z,99037.38
2019-05-13T12:59:07.848Z,99032.73
2019-05-13T13:04:11.986Z,99025.18
2019-05-13T13:09:13.166Z,99027.08
2019-05-13T13:14:16.881Z,99028.06
2019-05-13T13:19:18.317Z,99021.03
2019-05-13T13:24:23.605Z,99020.43
2019-05-13T13:29:24.445Z,99016.83
2019-05-13T13:34:26.679Z,99020.39
2019-05-13T13:39:28.255Z,99019.61
2019-05-13T13:44:34.758Z,99027.31
2019-05-13T13:49:34.898Z,99017.56
2019-05-13T13:54:36.568Z,99018.16
2019-05-13T14:00:11.667Z,99013.84
2019-05-13T14:04:42.995Z,98999.89
2019-05-13T14:09:44.866Z,98999.84
2019-05-13T14:14:46.547Z,98996.23
2019-05-13T14:19:48.103Z,98997.73
2019-05-13T14:24:51.837Z,98994.67
2019-05-13T14:29:52.977Z,98997.60
2019-05-13T14:34:54.450Z,99005.09
2019-05-13T14:39:56.560Z,99001.09
2019-05-13T14:44:58.043Z,98985.55
2019-05-13T14:50:01.917Z,98989.97
2019-05-13T14:55:05.953Z,98989.04
2019-05-13T15:00:09.734Z,98985.56
2019-05-13T15:05:12.164Z,98988.86
2019-05-13T15:10:14.691Z,98984.78
2019-05-13T15:15:16.872Z,98990.09
2019-05-13T15:20:21.622Z,98991.80
2019-05-13T15:25:22.792Z,98995.97
2019-05-13T15:30:24.756Z,98992.38
2019-05-13T15:35:26.252Z,98989.72
2019-05-13T15:40:31.070Z,99003.78
2019-05-13T15:45:32.331Z,99002.91
2019-05-13T15:50:33.882Z,99007.73
2019-05-13T15:55:35.804Z,99013.44
2019-05-13T16:00:37.449Z,99012.45
2019-05-13T16:05:39.318Z,99015.61
2019-05-13T16:10:42.035Z,99018.14
2019-05-13T16:15:43.659Z,99020.00
2019-05-13T16:20:45.502Z,99029.08
2019-05-13T16:25:47.101Z,99027.55
2019-05-13T16:30:51.393Z,99041.52
2019-05-13T16:35:52.059Z,99050.75
2019-05-13T16:40:53.539Z,99050.72
2019-05-13T16:45:55.230Z,99057.50
2019-05-13T16:50:57.023Z,99055.20
2019-05-13T16:56:01.501Z,99062.20
2019-05-13T17:01:02.876Z,99062.23
2019-05-13T17:06:04.818Z,99060.90
2019-05-13T17:11:06.777Z,99065.81
2019-05-13T17:16:08.254Z,99078.79
2019-05-13T17:21:09.883Z,99079.72
2019-05-13T17:26:11.753Z,99079.02
2019-05-13T17:31:13.694Z,99078.46
2019-05-13T17:36:15.174Z,99074.28
2019-05-13T17:41:16.754Z,99075.12
2019-05-13T17:46:18.255Z,99077.69
2019-05-13T17:51:19.843Z,99081.10
2019-05-13T17:56:21.771Z,99087.48
2019-05-13T18:01:24.659Z,99080.48
2019-05-13T18:06:26.136Z,99081.43
2019-05-13T18:11:27.615Z,99074.36
2019-05-13T18:16:29.415Z,99075.28
2019-05-13T18:21:32.003Z,99076.69
2019-05-13T18:26:33.918Z,99084.45
2019-05-13T18:31:35.415Z,99083.03
2019-05-13T18:36:36.990Z,99087.23
2019-05-13T18:41:38.465Z,99092.64
2019-05-13T18:46:41.728Z,99095.69
2019-05-13T18:51:43.683Z,99095.08
2019-05-13T18:56:46.598Z,99093.59
2019-05-13T19:01:48.578Z,99084.44
2019-05-13T19:06:51.756Z,99086.44
2019-05-13T19:11:53.575Z,99080.05
2019-05-13T19:16:56.281Z,99080.52
2019-05-13T19:21:57.958Z,99075.08
2019-05-13T19:27:01.610Z,99077.48
2019-05-13T19:32:03.179Z,99078.80
2019-05-13T19:37:04.698Z,99066.52
2019-05-13T19:42:06.399Z,99064.59
2019-05-13T19:47:07.979Z,99063.64
2019-05-13T19:52:11.945Z,99070.00
2019-05-13T19:57:13.732Z,99057.88
2019-05-13T20:02:15.457Z,99058.96
2019-05-13T20:07:16.928Z,99045.68
2019-05-13T20:12:18.512Z,99041.16
2019-05-13T20:17:20.164Z,99036.36
2019-05-13T20:22:21.749Z,99030.00
2019-05-13T20:27:23.336Z,99030.77
2019-05-13T20:32:24.947Z,99020.44
2019-05-13T20:37:26.651Z,99022.16
2019-05-13T20:42:28.317Z,99019.13
2019-05-13T20:47:29.999Z,99013.08
2019-05-13T20:52:31.621Z,99005.69
2019-05-13T20:57:33.663Z,99000.97
2019-05-13T21:02:35.187Z,99000.65
2019-05-13T21:07:36.656Z,98993.28
2019-05-13T21:12:38.131Z,98991.88
2019-05-13T21:17:39.700Z,98984.17
2019-05-13T21:22:42.392Z,98985.49
2019-05-13T21:27:44.148Z,98987.58
2019-05-13T21:32:45.731Z,98982.78
2019-05-13T21:37:47.211Z,98974.94
2019-05-13T21:42:48.708Z,98966.55
2019-05-13T21:47:50.188Z,98965.27
2019-05-13T21:52:51.670Z,98952.20
2019-05-13T21:57:53.195Z,98958.95
2019-05-13T22:02:55.011Z,98961.84
2019-05-13T22:07:56.597Z,98956.64
2019-05-13T22:12:58.079Z,98955.00
2019-05-13T22:18:01.798Z,98944.69
2019-05-13T22:23:03.692Z,98942.84
2019-05-13T22:28:05.246Z,98937.69
2019-05-13T22:33:06.728Z,98928.77
2019-05-13T22:38:08.618Z,98927.59
2019-05-13T22:43:12.158Z,98929.94
2019-05-13T22:48:14.970Z,98919.78
2019-05-13T22:53:17.890Z,98914.74
2019-05-13T22:58:19.426Z,98909.86
2019-05-13T23:03:21.121Z,98906.67
2019-05-13T23:08:22.610Z,98903.72
2019-05-13T23:13:24.079Z,98894.61
2019-05-13T23:18:25.631Z,98888.46
2019-05-13T23:23:27.325Z,98885.83
2019-05-13T23:28:29.062Z,98882.27
2019-05-13T23:33:31.393Z,98879.23
2019-05-13T23:38:33.152Z,98872.16
2019-05-13T23:43:34.634Z,98868.36
2019-05-13T23:48:36.229Z,98871.72
2019-05-13T23:53:37.724Z,98868.44
2019-05-13T23:58:41.226Z,98859.61
